createdAt,value
2018-01-26T00:00:09.016Z,4.00
2018-01-26T00:02:36.538Z,4.00
2018-01-26T00:05:04.176Z,4.00
2018-01-26T00:07:31.694Z,4.00
2018-01-26T00:09:59.200Z,4.00
2018-01-26T00:12:26.721Z,4.00
2018-01-26T00:14:54.222Z,4.00
2018-01-26T00:17:21.724Z,3.90
2018-01-26T00:19:49.210Z,3.90
2018-01-26T00:22:17.610Z,3.90
2018-01-26T00:24:45.125Z,3.90
2018-01-26T00:27:12.740Z,3.90
2018-01-26T00:29:40.389Z,3.90
2018-01-26T00:32:07.885Z,3.90
2018-01-26T00:37:26.683Z,3.80
2018-01-26T00:39:54.934Z,3.80
2018-01-26T00:42:22.473Z,3.80
2018-01-26T00:44:50.078Z,3.80
2018-01-26T00:47:17.634Z,3.80
2018-01-26T00:49:45.143Z,3.80
2018-01-26T00:52:12.630Z,3.80
2018-01-26T00:54:40.130Z,3.80
2018-01-26T00:57:07.863Z,3.80
2018-01-26T00:59:35.381Z,3.70
2018-01-26T01:02:02.862Z,3.70
2018-01-26T01:04:30.592Z,3.70
2018-01-26T01:06:58.066Z,3.70
2018-01-26T01:09:25.572Z,3.70
2018-01-26T01:11:53.043Z,3.60
2018-01-26T01:14:20.538Z,3.60
2018-01-26T01:16:48.100Z,3.50
2018-01-26T01:19:15.633Z,3.40
2018-01-26T01:21:43.578Z,3.40
2018-01-26T01:24:11.106Z,3.30
2018-01-26T01:26:38.605Z,3.30
2018-01-26T01:29:06.134Z,3.20
2018-01-26T01:31:33.621Z,3.20
2018-01-26T01:34:01.139Z,3.20
2018-01-26T01:36:28.629Z,3.20
2018-01-26T01:38:56.141Z,3.20
2018-01-26T01:41:23.647Z,3.20
2018-01-26T01:43:51.915Z,3.10
2018-01-26T01:46:19.440Z,3.10
2018-01-26T01:48:58.786Z,3.10
2018-01-26T01:51:26.318Z,3.00
2018-01-26T01:53:53.817Z,3.00
2018-01-26T01:56:22.077Z,2.90
2018-01-26T01:58:49.670Z,2.90
2018-01-26T02:01:17.182Z,2.90
2018-01-26T02:03:44.714Z,2.80
2018-01-26T02:06:12.220Z,2.90
2018-01-26T02:08:40.472Z,2.80
2018-01-26T02:11:08.016Z,2.80
2018-01-26T02:13:35.521Z,2.80
2018-01-26T02:16:03.783Z,2.70
2018-01-26T02:18:31.292Z,2.70
2018-01-26T02:20:58.814Z,2.80
2018-01-26T02:23:26.319Z,2.80
2018-01-26T02:25:53.829Z,2.80
2018-01-26T02:28:22.093Z,2.80
2018-01-26T02:30:50.370Z,2.80
2018-01-26T02:33:17.863Z,2.80
2018-01-26T02:35:45.472Z,2.80
2018-01-26T02:38:12.975Z,2.70
2018-01-26T02:40:40.928Z,2.70
2018-01-26T02:43:09.182Z,2.60
2018-01-26T02:45:36.686Z,2.60
2018-01-26T02:48:04.220Z,2.60
2018-01-26T02:50:31.778Z,2.60
2018-01-26T02:52:59.324Z,2.50
2018-01-26T02:55:26.908Z,2.50
2018-01-26T02:57:54.430Z,2.50
2018-01-26T03:00:21.945Z,2.50
2018-01-26T03:02:49.470Z,2.40
2018-01-26T03:05:16.990Z,2.40
2018-01-26T03:07:44.516Z,2.30
2018-01-26T03:10:12.010Z,2.30
2018-01-26T03:12:39.529Z,2.20
2018-01-26T03:15:07.083Z,2.20
2018-01-26T03:17:34.579Z,2.20
2018-01-26T03:20:02.108Z,2.10
2018-01-26T03:22:29.603Z,2.10
2018-01-26T03:24:57.144Z,2.00
2018-01-26T03:27:24.654Z,2.10
2018-01-26T03:29:52.930Z,2.00
2018-01-26T03:32:21.194Z,2.00
2018-01-26T03:34:49.559Z,1.90
2018-01-26T03:37:17.029Z,1.90
2018-01-26T03:39:44.560Z,1.90
2018-01-26T03:42:12.086Z,1.90
2018-01-26T03:44:39.610Z,1.90
2018-01-26T03:47:07.168Z,1.80
2018-01-26T03:49:35.894Z,1.80
2018-01-26T03:52:03.406Z,1.80
2018-01-26T03:54:31.685Z,1.80
2018-01-26T03:56:59.979Z,1.80
2018-01-26T03:59:27.495Z,1.80
2018-01-26T04:01:55.009Z,1.80
2018-01-26T04:04:22.508Z,1.80
2018-01-26T04:06:50.056Z,1.80
2018-01-26T04:09:17.604Z,1.80
2018-01-26T04:11:45.126Z,1.70
2018-01-26T04:14:12.618Z,1.70
2018-01-26T04:16:40.131Z,1.70
2018-01-26T04:19:08.420Z,1.60
2018-01-26T04:21:35.930Z,1.60
2018-01-26T04:24:03.480Z,1.50
2018-01-26T04:26:30.977Z,1.50
2018-01-26T04:28:58.488Z,1.50
2018-01-26T04:31:26.002Z,1.40
2018-01-26T04:33:53.530Z,1.30
2018-01-26T04:36:21.030Z,1.30
2018-01-26T04:38:48.580Z,1.30
2018-01-26T04:41:16.077Z,1.30
2018-01-26T04:43:43.625Z,1.20
2018-01-26T04:46:11.139Z,1.20
2018-01-26T04:48:38.692Z,1.10
2018-01-26T04:51:06.966Z,1.00
2018-01-26T04:53:34.464Z,1.00
2018-01-26T04:56:02.219Z,0.90
2018-01-26T04:58:29.770Z,0.90
2018-01-26T05:00:58.027Z,0.80
2018-01-26T05:03:25.553Z,0.70
2018-01-26T05:05:53.139Z,0.70
2018-01-26T05:08:20.638Z,0.70
2018-01-26T05:10:48.419Z,0.70
2018-01-26T05:13:15.918Z,0.60
2018-01-26T05:15:43.425Z,0.60
2018-01-26T05:18:10.921Z,0.50
2018-01-26T05:20:38.433Z,0.40
2018-01-26T05:23:05.958Z,0.40
2018-01-26T05:25:33.489Z,0.30
2018-01-26T05:28:01.281Z,0.30
2018-01-26T05:30:28.786Z,0.30
2018-01-26T05:32:56.344Z,0.30
2018-01-26T05:35:23.842Z,0.30
2018-01-26T05:37:51.400Z,0.20
2018-01-26T05:40:18.959Z,0.20
2018-01-26T05:42:46.472Z,0.10
2018-01-26T05:45:13.956Z,0.10
2018-01-26T05:47:41.478Z,0.00
2018-01-26T05:50:08.993Z,0.00
2018-01-26T05:52:36.538Z,0.00
2018-01-26T05:55:04.034Z,0.00
2018-01-26T05:57:32.445Z,0.00
2018-01-26T06:00:00.087Z,0.00
2018-01-26T06:02:27.672Z,0.00
2018-01-26T06:04:55.190Z,0.00
2018-01-26T06:07:22.722Z,0.00
2018-01-26T06:09:50.255Z,0.00
2018-01-26T06:12:17.942Z,0.00
2018-01-26T06:14:45.473Z,0.00
2018-01-26T06:17:12.992Z,0.00
2018-01-26T06:19:40.542Z,0.00
2018-01-26T06:22:08.809Z,0.00
2018-01-26T06:24:37.119Z,0.00
2018-01-26T06:27:04.669Z,0.00
2018-01-26T06:29:32.931Z,0.00
2018-01-26T06:32:00.470Z,0.00
2018-01-26T06:34:28.301Z,-0.10
2018-01-26T06:36:55.855Z,-0.10
2018-01-26T06:39:23.850Z,-0.10
2018-01-26T06:41:51.449Z,0.00
2018-01-26T06:44:19.706Z,-0.10
2018-01-26T06:46:47.222Z,-0.10
2018-01-26T06:49:14.732Z,-0.10
2018-01-26T06:51:42.281Z,-0.10
2018-01-26T06:54:09.788Z,-0.20
2018-01-26T06:56:37.296Z,-0.20
2018-01-26T06:59:05.273Z,-0.20
2018-01-26T07:01:33.592Z,-0.20
2018-01-26T07:04:01.127Z,-0.20
2018-01-26T07:06:29.396Z,-0.20
2018-01-26T07:08:57.761Z,-0.20
2018-01-26T07:11:25.302Z,-0.20
2018-01-26T07:13:52.852Z,-0.20
2018-01-26T07:16:20.583Z,-0.20
2018-01-26T07:18:48.104Z,-0.20
2018-01-26T07:21:15.690Z,-0.10
2018-01-26T07:23:43.283Z,-0.10
2018-01-26T07:26:10.784Z,0.00
2018-01-26T07:28:38.294Z,0.10
2018-01-26T07:31:05.965Z,0.10
2018-01-26T07:33:33.466Z,0.10
2018-01-26T07:36:01.753Z,0.20
2018-01-26T07:38:30.053Z,0.10
2018-01-26T07:40:57.560Z,0.00
2018-01-26T07:43:25.099Z,0.10
2018-01-26T07:45:52.688Z,0.20
2018-01-26T07:48:20.454Z,0.20
2018-01-26T07:50:48.157Z,0.30
2018-01-26T07:53:15.676Z,0.30
2018-01-26T07:55:43.242Z,0.40
2018-01-26T07:58:11.513Z,0.60
2018-01-26T08:00:39.787Z,0.60
2018-01-26T08:03:08.054Z,0.60
2018-01-26T08:05:36.505Z,0.50
2018-01-26T08:08:04.017Z,0.50
2018-01-26T08:10:32.316Z,0.40
2018-01-26T08:12:59.813Z,0.40
2018-01-26T08:15:28.871Z,0.50
2018-01-26T08:17:56.416Z,0.50
2018-01-26T08:20:23.914Z,0.60
2018-01-26T08:22:51.430Z,0.60
2018-01-26T08:25:18.930Z,0.70
2018-01-26T08:27:46.516Z,0.70
2018-01-26T08:30:15.433Z,0.70
2018-01-26T08:32:48.002Z,0.60
2018-01-26T08:35:16.637Z,0.70
2018-01-26T08:37:44.337Z,0.70
2018-01-26T08:40:12.291Z,0.60
2018-01-26T08:42:39.810Z,0.80
2018-01-26T08:45:07.353Z,0.80
2018-01-26T08:47:34.863Z,0.70
2018-01-26T08:50:02.357Z,0.60
2018-01-26T08:52:29.895Z,0.70
2018-01-26T08:54:58.187Z,0.70
2018-01-26T08:57:25.772Z,0.70
2018-01-26T08:59:53.278Z,0.80
2018-01-26T09:02:20.766Z,0.90
2018-01-26T09:04:48.279Z,1.00
2018-01-26T09:07:15.970Z,1.00
2018-01-26T09:09:44.480Z,1.00
2018-01-26T09:12:12.018Z,1.00
2018-01-26T09:14:39.551Z,1.20
2018-01-26T09:17:07.056Z,1.30
2018-01-26T09:19:34.909Z,1.40
2018-01-26T09:22:02.426Z,1.60
2018-01-26T09:24:29.926Z,1.60
2018-01-26T09:26:57.514Z,1.70
2018-01-26T09:29:25.043Z,2.00
2018-01-26T09:31:52.624Z,2.20
2018-01-26T09:34:20.157Z,2.50
2018-01-26T09:36:47.817Z,2.60
2018-01-26T09:39:15.389Z,3.00
2018-01-26T09:41:42.943Z,3.40
2018-01-26T09:44:10.471Z,3.80
2018-01-26T09:46:38.493Z,4.40
2018-01-26T09:49:07.794Z,4.70
2018-01-26T09:51:36.397Z,4.80
2018-01-26T09:54:04.360Z,5.20
2018-01-26T09:56:31.888Z,5.70
2018-01-26T09:58:59.539Z,5.80
2018-01-26T10:01:27.831Z,6.00
2018-01-26T10:03:56.086Z,5.70
2018-01-26T10:06:24.395Z,5.40
2018-01-26T10:08:51.911Z,5.30
2018-01-26T10:11:19.407Z,4.80
2018-01-26T10:13:47.490Z,4.60
2018-01-26T10:16:15.005Z,4.60
2018-01-26T10:18:42.546Z,4.40
2018-01-26T10:21:10.046Z,4.30
2018-01-26T10:23:37.587Z,4.20
2018-01-26T10:26:05.288Z,4.40
2018-01-26T10:28:32.854Z,4.60
2018-01-26T10:31:00.404Z,4.80
2018-01-26T10:33:27.898Z,4.90
2018-01-26T10:35:55.833Z,5.00
2018-01-26T10:38:23.329Z,5.30
2018-01-26T10:40:51.120Z,5.50
2018-01-26T10:43:18.727Z,5.50
2018-01-26T10:45:46.423Z,5.40
2018-01-26T10:48:13.929Z,5.20
2018-01-26T10:50:41.514Z,5.10
2018-01-26T10:53:09.011Z,5.30
2018-01-26T10:55:36.693Z,5.60
2018-01-26T10:58:04.186Z,6.10
2018-01-26T11:00:31.695Z,6.40
2018-01-26T11:02:59.210Z,6.90
2018-01-26T11:05:26.755Z,7.60
2018-01-26T11:07:54.238Z,7.50
2018-01-26T11:10:21.734Z,7.60
2018-01-26T11:12:49.305Z,7.70
2018-01-26T11:15:16.798Z,7.80
2018-01-26T11:17:44.307Z,7.80
2018-01-26T11:20:11.783Z,7.60
2018-01-26T11:22:39.292Z,7.20
2018-01-26T11:25:06.811Z,6.60
2018-01-26T11:27:34.326Z,6.20
2018-01-26T11:30:01.827Z,6.30
2018-01-26T11:32:29.345Z,6.50
2018-01-26T11:34:57.110Z,6.60
2018-01-26T11:37:24.692Z,6.90
2018-01-26T11:39:57.680Z,6.90
2018-01-26T11:42:30.055Z,6.90
2018-01-26T11:44:57.600Z,6.90
2018-01-26T11:47:25.141Z,6.80
2018-01-26T11:49:53.054Z,6.90
2018-01-26T11:52:20.573Z,7.00
2018-01-26T11:54:48.910Z,7.20
2018-01-26T11:57:16.556Z,7.20
2018-01-26T11:59:44.191Z,7.50
2018-01-26T12:02:11.693Z,7.60
2018-01-26T12:04:40.032Z,7.50
2018-01-26T12:07:07.740Z,7.50
2018-01-26T12:09:35.332Z,7.10
2018-01-26T12:12:03.637Z,7.00
2018-01-26T12:14:31.148Z,7.00
2018-01-26T12:16:58.656Z,7.10
2018-01-26T12:19:26.286Z,7.20
2018-01-26T12:21:53.843Z,7.40
2018-01-26T12:24:22.101Z,7.00
2018-01-26T12:26:50.385Z,6.50
2018-01-26T12:29:17.925Z,6.50
2018-01-26T12:31:45.457Z,6.10
2018-01-26T12:34:12.950Z,5.90
2018-01-26T12:36:40.472Z,5.90
2018-01-26T12:39:08.002Z,5.80
2018-01-26T12:41:35.539Z,5.90
2018-01-26T12:44:03.822Z,6.30
2018-01-26T12:46:31.584Z,6.30
2018-01-26T12:48:59.870Z,6.50
2018-01-26T12:51:28.185Z,6.60
2018-01-26T12:53:55.716Z,6.60
2018-01-26T12:56:23.249Z,6.60
2018-01-26T12:58:50.761Z,6.50
2018-01-26T13:01:18.317Z,6.60
2018-01-26T13:03:45.843Z,6.70
2018-01-26T13:06:14.111Z,6.70
2018-01-26T13:08:42.474Z,6.80
2018-01-26T13:11:10.373Z,6.70
2018-01-26T13:13:37.957Z,6.60
2018-01-26T13:16:05.465Z,6.40
2018-01-26T13:18:33.740Z,6.40
2018-01-26T13:21:01.230Z,6.40
2018-01-26T13:23:28.770Z,6.40
2018-01-26T13:25:57.185Z,6.50
2018-01-26T13:28:24.774Z,6.50
2018-01-26T13:30:52.270Z,6.50
2018-01-26T13:33:19.799Z,6.50
2018-01-26T13:44:27.513Z,6.50
2018-01-26T13:46:55.319Z,6.50
2018-01-26T13:49:22.844Z,6.60
2018-01-26T13:51:50.342Z,6.70
2018-01-26T13:54:18.774Z,6.80
2018-01-26T13:56:47.982Z,6.80
2018-01-26T13:59:15.521Z,6.80
2018-01-26T14:01:43.024Z,6.90
2018-01-26T14:04:10.673Z,7.00
2018-01-26T14:06:38.685Z,7.10
2018-01-26T14:09:06.677Z,7.10
2018-01-26T14:11:34.193Z,7.00
2018-01-26T14:14:01.682Z,6.80
2018-01-26T14:16:29.189Z,6.80
2018-01-26T14:18:56.679Z,6.80
2018-01-26T14:21:24.959Z,6.70
2018-01-26T14:23:53.235Z,6.70
2018-01-26T14:26:20.770Z,6.70
2018-01-26T14:28:48.462Z,6.60
2018-01-26T14:31:16.058Z,6.50
2018-01-26T14:33:43.553Z,6.40
2018-01-26T14:36:11.076Z,6.20
2018-01-26T14:38:38.601Z,6.10
2018-01-26T14:41:06.129Z,5.90
2018-01-26T14:43:33.680Z,5.80
2018-01-26T14:46:01.243Z,5.70
2018-01-26T14:48:28.743Z,5.70
2018-01-26T14:50:56.242Z,5.70
2018-01-26T14:53:23.777Z,5.70
2018-01-26T14:55:51.279Z,5.80
2018-01-26T14:58:18.797Z,5.80
2018-01-26T15:00:46.345Z,5.90
2018-01-26T15:03:13.916Z,5.90
2018-01-26T15:05:41.434Z,5.90
2018-01-26T15:08:09.702Z,5.80
2018-01-26T15:10:38.114Z,5.70
2018-01-26T15:13:05.706Z,5.70
2018-01-26T15:15:33.186Z,5.60
2018-01-26T15:18:00.875Z,5.50
2018-01-26T15:20:28.531Z,5.50
2018-01-26T15:22:56.036Z,5.50
2018-01-26T15:25:23.549Z,5.40
2018-01-26T15:27:51.543Z,5.30
2018-01-26T15:30:19.066Z,5.30
2018-01-26T15:32:49.243Z,5.10
2018-01-26T15:35:16.744Z,5.10
2018-01-26T15:37:45.206Z,5.00
2018-01-26T15:40:12.724Z,5.00
2018-01-26T15:42:40.275Z,4.90
2018-01-26T15:45:07.794Z,4.80
2018-01-26T15:47:36.110Z,4.70
2018-01-26T15:50:03.833Z,4.70
2018-01-26T15:52:32.157Z,4.60
2018-01-26T15:54:59.709Z,4.60
2018-01-26T15:57:27.321Z,4.50
2018-01-26T15:59:54.903Z,4.40
2018-01-26T16:02:23.190Z,4.20
2018-01-26T16:04:54.828Z,4.20
2018-01-26T16:07:22.739Z,4.20
2018-01-26T16:09:50.362Z,4.10
2018-01-26T16:12:18.723Z,4.00
2018-01-26T16:14:46.396Z,4.00
2018-01-26T16:17:13.998Z,3.90
2018-01-26T16:19:41.615Z,3.80
2018-01-26T16:22:10.097Z,3.60
2018-01-26T16:24:37.611Z,3.60
2018-01-26T16:27:05.141Z,3.60
2018-01-26T16:29:32.926Z,3.50
2018-01-26T16:32:00.451Z,3.50
2018-01-26T16:34:28.014Z,3.40
2018-01-26T16:36:55.518Z,3.40
2018-01-26T16:39:23.624Z,3.40
2018-01-26T16:41:51.297Z,3.30
2018-01-26T16:44:19.577Z,3.10
2018-01-26T16:46:47.897Z,3.10
2018-01-26T16:49:15.412Z,3.10
2018-01-26T16:51:42.911Z,3.00
2018-01-26T16:54:10.535Z,3.00
2018-01-26T16:56:38.060Z,2.90
2018-01-26T16:59:05.590Z,2.90
2018-01-26T17:01:33.085Z,2.90
2018-01-26T17:04:00.616Z,2.80
2018-01-26T17:06:28.336Z,2.80
2018-01-26T17:08:56.006Z,2.80
2018-01-26T17:11:23.793Z,2.80
2018-01-26T17:13:51.394Z,2.80
2018-01-26T21:35:47.029Z,0.50
2018-01-26T21:38:14.686Z,0.50
2018-01-26T21:40:42.190Z,0.50
2018-01-26T21:43:09.704Z,0.50
2018-01-26T21:45:37.219Z,0.50
2018-01-26T21:48:05.045Z,0.50
2018-01-26T21:50:32.567Z,0.50
2018-01-26T21:53:00.070Z,0.50
2018-01-26T21:55:27.735Z,0.50
2018-01-26T21:57:55.225Z,0.40
2018-01-26T22:00:22.753Z,0.40
2018-01-26T22:02:50.272Z,0.40
2018-01-26T22:05:17.967Z,0.40
2018-01-26T22:07:45.450Z,0.40
2018-01-26T22:10:12.953Z,0.50
2018-01-26T22:12:41.360Z,0.50
2018-01-26T22:15:08.909Z,0.50
2018-01-26T22:17:36.417Z,0.50
2018-01-26T22:20:03.911Z,0.50
2018-01-26T22:22:31.480Z,0.50
2018-01-26T22:24:59.011Z,0.50
2018-01-26T22:27:26.721Z,0.50
2018-01-26T22:29:54.359Z,0.50
2018-01-26T22:32:21.884Z,0.50
2018-01-26T22:34:49.604Z,0.60
2018-01-26T22:37:17.251Z,0.60
2018-01-26T22:39:44.902Z,0.70
2018-01-26T22:42:12.427Z,0.70
2018-01-26T22:44:39.954Z,0.70
2018-01-26T22:47:07.441Z,0.80
2018-01-26T22:49:34.954Z,0.80
2018-01-26T22:52:02.440Z,0.90
2018-01-26T22:54:29.934Z,0.90
2018-01-26T22:56:58.205Z,0.80
2018-01-26T22:59:26.479Z,0.80
2018-01-26T23:01:54.749Z,0.80
2018-01-26T23:04:22.258Z,0.80
2018-01-26T23:06:49.738Z,0.80
2018-01-26T23:09:17.257Z,0.80
2018-01-26T23:11:44.840Z,0.80
2018-01-26T23:14:12.349Z,0.70
2018-01-26T23:16:40.632Z,0.70
2018-01-26T23:19:09.031Z,0.70
2018-01-26T23:21:36.527Z,0.70
2018-01-26T23:24:04.122Z,0.70
2018-01-26T23:26:32.438Z,0.70
2018-01-26T23:28:59.954Z,0.70
2018-01-26T23:31:28.238Z,0.70
2018-01-26T23:33:56.514Z,0.70
2018-01-26T23:36:24.104Z,0.70
2018-01-26T23:38:51.719Z,0.80
2018-01-26T23:41:19.371Z,0.80
2018-01-26T23:43:46.894Z,0.80
2018-01-26T23:46:14.421Z,0.80
2018-01-26T23:48:41.934Z,0.80
2018-01-26T23:51:09.659Z,0.80
2018-01-26T23:53:37.169Z,0.80
2018-01-26T23:56:05.584Z,0.80
2018-01-26T23:58:33.090Z,0.80
